Time;durP1;ratioP1;P1;durP2;ratioP2;P2;SDS_P1;SDS_P2;PMS_P1;PMS_P2;Temp;Humidity;BMP_temperature;BMP_pressure;BME280_temperature;BME280_humidity;BME280_pressure;Samples;Min_cycle;Max_cycle;Signal;HPM_P1;HPM_P2
2022/08/19 00:00:40;;;;;;;4.50;3.07;;;22.90;99.90;;;;;;5114262;28;20467;-71
2022/08/19 00:03:08;;;;;;;5.43;3.07;;;22.90;99.90;;;;;;5116434;28;20480;-71
2022/08/19 00:05:35;;;;;;;5.40;3.90;;;22.80;99.90;;;;;;5114625;28;20537;-72
2022/08/19 00:08:02;;;;;;;4.53;4.13;;;22.80;99.90;;;;;;5116532;28;20448;-72
2022/08/19 00:10:30;;;;;;;3.57;2.83;;;22.70;1.00;;;;;;5105610;28;20509;-71
2022/08/19 00:12:57;;;;;;;3.50;3.20;;;22.80;1.00;;;;;;5096911;28;20442;-72
2022/08/19 00:15:24;;;;;;;4.43;3.97;;;22.80;1.00;;;;;;5096103;28;20799;-71
2022/08/19 00:17:51;;;;;;;4.70;4.30;;;22.60;1.00;;;;;;5096432;28;20484;-72
2022/08/19 00:20:21;;;;;;;5.13;3.83;;;22.40;1.00;;;;;;5096356;28;20524;-72
2022/08/19 00:22:48;;;;;;;4.80;2.80;;;22.30;1.60;;;;;;5096629;28;20441;-72
2022/08/19 00:25:16;;;;;;;3.40;2.80;;;22.40;1.00;;;;;;5096359;28;20540;-72
2022/08/19 00:27:44;;;;;;;5.87;3.40;;;22.50;1.00;;;;;;5092200;28;20897;-71
2022/08/19 00:30:12;;;;;;;3.93;3.57;;;22.60;1.00;;;;;;5095504;28;20578;-72
2022/08/19 00:32:40;;;;;;;4.07;3.67;;;22.70;1.00;;;;;;5092783;28;20759;-72
2022/08/19 00:35:09;;;;;;;3.70;3.17;;;22.70;1.00;;;;;;5093805;28;20524;-71
2022/08/19 00:37:36;;;;;;;6.13;3.60;;;22.70;1.00;;;;;;5090566;28;20472;-72
2022/08/19 00:40:05;;;;;;;4.30;3.50;;;22.60;1.00;;;;;;5092480;28;20438;-71
2022/08/19 00:42:32;;;;;;;3.87;2.57;;;22.60;1.00;;;;;;5090933;28;20453;-72
2022/08/19 00:45:01;;;;;;;4.43;4.00;;;22.50;1.00;;;;;;5093325;28;20484;-72
2022/08/19 00:47:28;;;;;;;6.33;4.53;;;22.40;1.00;;;;;;5092650;28;20489;-72
2022/08/19 00:49:58;;;;;;;3.43;3.13;;;22.30;1.00;;;;;;5098411;28;20513;-71
2022/08/19 00:52:29;;;;;;;5.27;3.87;;;22.40;1.00;;;;;;5096655;28;20461;-72
2022/08/19 00:54:57;;;;;;;5.53;4.27;;;22.50;1.00;;;;;;5099849;28;20936;-71
2022/08/19 00:57:30;;;;;;;4.47;2.83;;;22.50;1.00;;;;;;5096888;28;20487;-71
2022/08/19 00:59:59;;;;;;;4.70;3.03;;;22.50;1.00;;;;;;5099726;28;20499;-71
2022/08/19 01:02:28;;;;;;;4.60;3.40;;;22.50;1.00;;;;;;5097672;28;20481;-72
2022/08/19 01:04:55;;;;;;;4.30;3.90;;;22.50;1.00;;;;;;5099754;28;20538;-72
2022/08/19 01:07:23;;;;;;;4.33;3.60;;;22.50;1.00;;;;;;5096740;28;20535;-72
2022/08/19 01:09:50;;;;;;;3.90;3.50;;;22.50;1.00;;;;;;5101911;28;20484;-72
2022/08/19 01:12:17;;;;;;;3.20;3.00;;;22.50;1.00;;;;;;5117249;28;20487;-71
2022/08/19 01:14:45;;;;;;;7.27;4.40;;;22.60;1.00;;;;;;5118889;28;20905;-72
2022/08/19 01:17:13;;;;;;;5.20;4.10;;;22.60;1.00;;;;;;5118111;28;20546;-71
2022/08/19 01:19:43;;;;;;;3.43;2.90;;;22.70;1.00;;;;;;5118863;28;20884;-72
2022/08/19 01:22:15;;;;;;;5.57;3.90;;;22.70;1.00;;;;;;5117459;28;20465;-71
2022/08/19 01:24:44;;;;;;;4.43;3.10;;;22.70;1.00;;;;;;5119667;28;20580;-72
2022/08/19 01:27:11;;;;;;;3.47;3.17;;;22.70;1.00;;;;;;5118100;28;20524;-71
2022/08/19 01:29:39;;;;;;;5.33;3.73;;;22.70;1.00;;;;;;5119676;28;20484;-71
2022/08/19 01:32:08;;;;;;;4.47;3.00;;;22.70;1.00;;;;;;5116872;28;20900;-71
2022/08/19 01:34:35;;;;;;;4.20;2.30;;;22.60;1.00;;;;;;5119962;28;20501;-71
2022/08/19 01:37:10;;;;;;;6.70;4.13;;;22.60;1.00;;;;;;5118801;28;20459;-71
2022/08/19 01:39:38;;;;;;;4.67;3.40;;;22.70;1.00;;;;;;5119815;28;20498;-71
2022/08/19 01:42:10;;;;;;;4.70;3.07;;;22.60;1.00;;;;;;5118209;28;20500;-71
2022/08/19 01:44:38;;;;;;;5.07;4.50;;;22.60;1.00;;;;;;5119810;28;20453;-72
2022/08/19 01:47:09;;;;;;;3.57;2.67;;;22.50;1.00;;;;;;5117435;28;20453;-71
2022/08/19 01:49:37;;;;;;;6.27;3.63;;;22.50;1.00;;;;;;5119028;28;20503;-71
2022/08/19 01:52:05;;;;;;;5.03;3.77;;;22.50;1.00;;;;;;5116909;28;20453;-71
2022/08/19 01:54:33;;;;;;;5.40;4.90;;;22.50;1.00;;;;;;5119474;28;20470;-71
2022/08/19 01:57:04;;;;;;;3.90;3.57;;;22.50;1.00;;;;;;5114817;28;20753;-72
2022/08/19 01:59:36;;;;;;;4.33;3.93;;;22.50;1.00;;;;;;5116432;28;20545;-71
2022/08/19 02:02:07;;;;;;;6.10;5.50;;;22.50;1.00;;;;;;5114286;28;20456;-71
2022/08/19 02:04:34;;;;;;;5.80;4.23;;;22.50;1.00;;;;;;5117892;28;20513;-71
2022/08/19 02:07:01;;;;;;;4.93;3.20;;;22.40;1.00;;;;;;5115299;28;20451;-71
2022/08/19 02:09:28;;;;;;;6.60;5.43;;;22.30;99.90;;;;;;5117640;28;21023;-72
2022/08/19 02:11:55;;;;;;;4.73;4.30;;;22.30;99.90;;;;;;5116558;28;20452;-71
2022/08/19 02:14:22;;;;;;;7.00;4.53;;;22.30;99.90;;;;;;5118901;28;20876;-71
2022/08/19 02:16:51;;;;;;;5.40;4.07;;;22.30;99.90;;;;;;5116678;28;20456;-71
2022/08/19 02:19:18;;;;;;;4.83;4.27;;;22.40;99.90;;;;;;5118059;28;20517;-71
2022/08/19 02:21:45;;;;;;;5.27;4.13;;;22.40;99.90;;;;;;5116719;28;20459;-71
2022/08/19 02:24:12;;;;;;;6.37;5.77;;;22.40;99.90;;;;;;5118837;28;20929;-71
2022/08/19 02:26:39;;;;;;;12.63;4.70;;;22.30;99.90;;;;;;5116252;28;20518;-71
2022/08/19 02:29:07;;;;;;;5.30;4.73;;;22.30;99.90;;;;;;5118734;28;20507;-71
2022/08/19 02:31:34;;;;;;;5.20;4.70;;;22.30;99.90;;;;;;5116501;28;20452;-71
2022/08/19 02:34:02;;;;;;;7.23;5.00;;;22.40;99.90;;;;;;5118310;28;20448;-72
2022/08/19 02:36:30;;;;;;;5.93;4.43;;;22.40;99.90;;;;;;5116543;28;20880;-72
2022/08/19 02:38:56;;;;;;;7.40;5.90;;;22.50;99.90;;;;;;5118314;28;20449;-72
2022/08/19 02:41:25;;;;;;;6.60;4.40;;;22.30;99.90;;;;;;5116876;28;20539;-71
2022/08/19 02:43:52;;;;;;;5.43;4.60;;;22.30;99.90;;;;;;5118404;28;20456;-72
2022/08/19 02:46:21;;;;;;;7.37;6.57;;;22.30;1.00;;;;;;5115094;28;20499;-72
2022/08/19 02:48:53;;;;;;;9.37;6.07;;;22.20;1.00;;;;;;5118119;28;20948;-71
2022/08/19 02:51:23;;;;;;;9.07;5.50;;;22.10;1.00;;;;;;5115770;28;20555;-71
2022/08/19 02:53:50;;;;;;;9.27;5.70;;;22.00;99.90;;;;;;5118231;28;20480;-71
2022/08/19 02:56:18;;;;;;;7.40;4.87;;;21.80;1.00;;;;;;5114788;28;20907;-72
2022/08/19 02:58:45;;;;;;;7.53;5.93;;;21.70;99.90;;;;;;5118250;28;20489;-71
2022/08/19 03:01:20;;;;;;;7.70;5.70;;;21.70;1.00;;;;;;5115536;28;20452;-72
2022/08/19 03:03:47;;;;;;;8.80;6.20;;;21.70;1.00;;;;;;5118230;28;20497;-72
2022/08/19 03:06:16;;;;;;;7.23;5.40;;;21.60;99.90;;;;;;5115580;28;20463;-72
2022/08/19 03:08:46;;;;;;;8.67;5.83;;;21.70;1.00;;;;;;5116646;28;20445;-71
2022/08/19 03:11:18;;;;;;;7.83;6.10;;;21.70;1.00;;;;;;5114646;28;20500;-72
2022/08/19 03:13:45;;;;;;;11.73;6.93;;;21.70;1.00;;;;;;5109388;28;20449;-72
2022/08/19 03:16:13;;;;;;;9.73;7.43;;;21.50;1.00;;;;;;5115268;28;20510;-72
2022/08/19 03:18:40;;;;;;;6.90;6.00;;;21.40;1.00;;;;;;5117473;28;20449;-71
2022/08/19 03:21:07;;;;;;;8.27;6.17;;;21.30;1.00;;;;;;5115330;28;20449;-72
2022/08/19 03:23:34;;;;;;;7.30;5.30;;;21.50;1.00;;;;;;5117863;28;20494;-72
2022/08/19 03:26:05;;;;;;;7.87;6.47;;;21.60;1.00;;;;;;5113853;28;20457;-72
2022/08/19 03:28:34;;;;;;;9.27;7.60;;;21.70;1.00;;;;;;5117458;28;20497;-72
2022/08/19 03:31:04;;;;;;;6.37;5.00;;;21.50;1.00;;;;;;5114105;28;20927;-72
2022/08/19 03:33:33;;;;;;;8.97;6.77;;;21.60;99.90;;;;;;5116741;28;20735;-72
2022/08/19 03:36:06;;;;;;;7.50;6.30;;;21.60;99.90;;;;;;5113804;28;20461;-72
2022/08/19 03:38:33;;;;;;;10.47;8.20;;;21.60;19.80;;;;;;5117382;28;20452;-71
2022/08/19 03:41:06;;;;;;;8.50;6.30;;;21.70;1.00;;;;;;5115151;28;20853;-72
2022/08/19 03:43:34;;;;;;;9.90;7.40;;;21.70;1.00;;;;;;5117137;28;20906;-72
2022/08/19 03:46:03;;;;;;;10.13;7.97;;;21.70;99.90;;;;;;5114313;28;20452;-72
2022/08/19 03:48:31;;;;;;;8.90;6.87;;;21.40;99.90;;;;;;5117764;28;20440;-72
2022/08/19 03:50:59;;;;;;;8.10;7.30;;;21.40;1.00;;;;;;5114105;28;20489;-71
2022/08/19 03:53:27;;;;;;;8.10;7.30;;;21.30;1.00;;;;;;5117568;28;20451;-71
2022/08/19 03:55:55;;;;;;;8.40;6.90;;;21.10;99.90;;;;;;5114516;28;20510;-71
2022/08/19 03:58:24;;;;;;;11.30;8.43;;;21.10;99.90;;;;;;5117071;28;20521;-72
2022/08/19 04:00:51;;;;;;;9.10;6.83;;;21.20;99.90;;;;;;5096807;28;20911;-72
2022/08/19 04:03:19;;;;;;;8.40;7.20;;;21.30;1.00;;;;;;5117063;28;20799;-71
2022/08/19 04:05:47;;;;;;;9.37;6.57;;;21.40;1.00;;;;;;5114376;28;20777;-72
2022/08/19 04:08:18;;;;;;;7.97;7.17;;;21.40;1.00;;;;;;5116070;28;20451;-72
2022/08/19 04:10:47;;;;;;;8.90;7.83;;;21.30;1.00;;;;;;5112816;28;20935;-71
2022/08/19 04:13:14;;;;;;;8.50;7.40;;;21.40;1.00;;;;;;5116787;28;20892;-72
2022/08/19 04:15:46;;;;;;;11.20;8.13;;;21.50;99.90;;;;;;5114733;28;20456;-72
2022/08/19 04:18:13;;;;;;;10.47;8.20;;;21.60;1.00;;;;;;5116268;28;20552;-72
2022/08/19 04:20:45;;;;;;;9.53;7.77;;;21.40;99.90;;;;;;5114041;28;20502;-71
2022/08/19 04:23:13;;;;;;;7.30;6.60;;;21.40;99.90;;;;;;5114889;28;20452;-72
2022/08/19 04:25:43;;;;;;;8.60;7.37;;;21.30;1.00;;;;;;5112333;28;20529;-72
2022/08/19 04:28:12;;;;;;;11.10;8.50;;;21.20;1.00;;;;;;5116359;28;20501;-71
2022/08/19 04:30:43;;;;;;;10.33;8.77;;;21.30;1.00;;;;;;5113440;28;20480;-72
2022/08/19 04:33:11;;;;;;;12.10;8.93;;;21.40;99.90;;;;;;5115823;28;20468;-72
2022/08/19 04:35:40;;;;;;;9.90;8.23;;;21.40;99.90;;;;;;5114843;28;20505;-71
2022/08/19 04:38:07;;;;;;;11.90;8.30;;;21.40;99.90;;;;;;5115422;28;20470;-71
2022/08/19 04:43:21;;;;;;;7.93;7.10;;;21.40;99.90;;;;;;5115978;28;20555;-71
2022/08/19 04:45:51;;;;;;;10.93;8.07;;;21.40;99.90;;;;;;5113133;28;20540;-71
2022/08/19 04:48:26;;;;;;;10.17;8.53;;;21.30;99.90;;;;;;5115672;28;20452;-71
2022/08/19 04:50:57;;;;;;;8.80;8.00;;;21.20;1.00;;;;;;5112839;28;20480;-71
2022/08/19 04:53:24;;;;;;;9.00;7.30;;;21.30;1.00;;;;;;5116422;28;20444;-72
2022/08/19 04:55:52;;;;;;;9.60;7.90;;;21.40;99.90;;;;;;5112005;28;20455;-71
2022/08/19 04:58:19;;;;;;;11.87;9.23;;;21.30;1.00;;;;;;5115512;28;20489;-71
2022/08/19 05:00:46;;;;;;;9.50;8.47;;;21.30;1.00;;;;;;5116064;28;20444;-71
2022/08/19 05:03:16;;;;;;;9.97;7.17;;;21.30;1.00;;;;;;5116402;28;20529;-71
2022/08/19 05:05:45;;;;;;;11.70;9.70;;;21.40;1.00;;;;;;5112867;28;20457;-71
2022/08/19 05:08:12;;;;;;;13.27;11.50;;;21.60;47.40;;;;;;5116299;28;20452;-71
2022/08/19 05:10:40;;;;;;;8.47;7.53;;;21.30;1.00;;;;;;5113187;28;20484;-71
2022/08/19 05:13:10;;;;;;;9.20;7.07;;;21.40;1.00;;;;;;5115710;28;20527;-71
2022/08/19 05:15:37;;;;;;;10.23;8.40;;;21.40;1.00;;;;;;5109434;28;20737;-71
2022/08/19 05:23:34;;;;;;;9.20;7.83;;;21.40;99.90;;;;;;5115826;28;20428;-71
2022/08/19 05:26:01;;;;;;;8.10;7.27;;;21.50;99.90;;;;;;5116134;28;20436;-71
2022/08/19 05:28:28;;;;;;;8.90;7.80;;;21.60;99.90;;;;;;5115951;28;20444;-71
2022/08/19 05:30:55;;;;;;;12.30;9.70;;;21.60;99.90;;;;;;5114069;28;20545;-71
2022/08/19 05:33:24;;;;;;;10.13;8.73;;;21.60;31.70;;;;;;5115337;28;20523;-71
2022/08/19 05:35:52;;;;;;;8.33;7.37;;;21.40;1.00;;;;;;5115745;28;20547;-71
2022/08/19 05:38:19;;;;;;;7.97;7.07;;;21.50;99.90;;;;;;5118311;28;20440;-73
2022/08/19 05:40:47;;;;;;;7.87;7.07;;;21.50;99.90;;;;;;5108388;28;20513;-72
2022/08/19 05:43:16;;;;;;;9.63;8.50;;;21.50;99.90;;;;;;5118331;28;20744;-71
2022/08/19 05:45:44;;;;;;;8.13;7.30;;;21.50;99.90;;;;;;5114916;28;20456;-71
2022/08/19 05:48:12;;;;;;;10.83;8.60;;;21.40;99.90;;;;;;5119655;28;20452;-70
2022/08/19 05:50:40;;;;;;;10.40;8.50;;;21.40;1.00;;;;;;5116013;28;20556;-71
2022/08/19 05:53:09;;;;;;;11.27;8.50;;;21.40;99.90;;;;;;5119071;28;20483;-71
2022/08/19 05:55:38;;;;;;;8.73;7.43;;;21.40;1.00;;;;;;5115574;28;20455;-71
2022/08/19 05:58:07;;;;;;;8.37;7.50;;;21.50;99.90;;;;;;5117060;28;20525;-71
2022/08/19 06:00:34;;;;;;;8.20;7.40;;;21.50;99.90;;;;;;5114932;28;20464;-71
2022/08/19 06:03:02;;;;;;;8.10;7.23;;;21.60;69.10;;;;;;5117168;28;20494;-71
2022/08/19 06:05:30;;;;;;;14.23;9.20;;;21.60;1.00;;;;;;5116738;28;20531;-71
2022/08/19 06:07:58;;;;;;;9.10;7.40;;;21.60;1.00;;;;;;5110425;27;20482;-72
2022/08/19 06:10:27;;;;;;;9.80;8.37;;;21.60;1.00;;;;;;5112726;28;20488;-71
2022/08/19 06:12:55;;;;;;;13.03;10.30;;;21.70;1.00;;;;;;5113525;28;20531;-72
2022/08/19 06:15:25;;;;;;;9.37;7.83;;;21.40;99.90;;;;;;5119866;27;20437;-71
2022/08/19 06:17:52;;;;;;;9.93;8.80;;;21.30;1.00;;;;;;5117899;28;20540;-71
2022/08/19 06:20:20;;;;;;;11.30;9.90;;;21.30;1.00;;;;;;5117336;28;20888;-70
2022/08/19 06:22:49;;;;;;;9.23;8.20;;;21.40;1.00;;;;;;5111993;28;20453;-70
2022/08/19 06:25:17;;;;;;;10.00;7.43;;;21.50;1.00;;;;;;5116145;28;20467;-70
2022/08/19 06:27:45;;;;;;;10.67;7.63;;;21.70;99.90;;;;;;5108204;28;20463;-70
2022/08/19 06:30:13;;;;;;;15.20;8.37;;;21.70;1.00;;;;;;5108522;28;20480;-70
2022/08/19 06:32:40;;;;;;;7.07;6.07;;;21.60;1.00;;;;;;5106712;28;20461;-69
2022/08/19 06:35:08;;;;;;;8.87;7.20;;;21.60;99.90;;;;;;5115747;28;20536;-70
2022/08/19 06:37:36;;;;;;;8.80;7.17;;;21.70;99.90;;;;;;5108434;28;20488;-69
2022/08/19 06:40:05;;;;;;;8.13;7.27;;;21.80;1.00;;;;;;5116202;28;20895;-69
2022/08/19 06:42:32;;;;;;;10.17;7.27;;;21.90;1.00;;;;;;5109240;28;20465;-69
2022/08/19 06:45:02;;;;;;;7.83;7.03;;;21.90;1.00;;;;;;5117555;28;20498;-70
2022/08/19 06:47:30;;;;;;;8.90;7.37;;;21.80;1.00;;;;;;5109293;28;20457;-69
2022/08/19 06:50:01;;;;;;;8.97;7.70;;;21.80;68.70;;;;;;5108535;27;20451;-70
2022/08/19 06:52:28;;;;;;;11.30;8.97;;;21.80;99.90;;;;;;5106385;28;20452;-69
2022/08/19 06:54:57;;;;;;;8.90;7.13;;;21.70;1.00;;;;;;5122633;27;20468;-69
2022/08/19 06:57:25;;;;;;;8.90;7.40;;;21.70;1.00;;;;;;5113644;28;20436;-70
2022/08/19 06:59:52;;;;;;;9.60;8.43;;;21.70;99.90;;;;;;5115078;28;20444;-69
2022/08/19 07:02:20;;;;;;;11.20;8.10;;;21.70;99.90;;;;;;5110941;28;20545;-69
2022/08/19 07:04:47;;;;;;;8.63;7.00;;;21.50;99.90;;;;;;5115286;28;20494;-70
2022/08/19 07:07:15;;;;;;;8.27;7.47;;;21.50;1.00;;;;;;5107029;28;20944;-69
2022/08/19 07:09:44;;;;;;;9.97;8.90;;;21.60;1.00;;;;;;5115811;28;20457;-70
2022/08/19 07:12:15;;;;;;;8.97;7.00;;;21.40;1.00;;;;;;5109817;27;20845;-68
2022/08/19 07:14:43;;;;;;;10.70;7.00;;;21.50;1.00;;;;;;5113634;28;20441;-69
2022/08/19 07:17:12;;;;;;;8.93;7.93;;;21.60;99.90;;;;;;5110211;28;20457;-69
2022/08/19 07:19:42;;;;;;;12.03;9.90;;;21.60;99.90;;;;;;5113843;28;20991;-69
2022/08/19 07:22:09;;;;;;;10.03;7.70;;;21.50;1.00;;;;;;5111900;28;20498;-69
2022/08/19 07:24:37;;;;;;;9.40;7.53;;;21.60;1.00;;;;;;5120462;27;20471;-70
2022/08/19 07:27:06;;;;;;;7.03;6.33;;;21.60;99.90;;;;;;5113161;28;20529;-69
2022/08/19 07:29:36;;;;;;;11.10;8.50;;;21.60;99.90;;;;;;5115086;28;20445;-69
2022/08/19 07:32:04;;;;;;;7.37;6.20;;;21.40;1.00;;;;;;5112438;28;20511;-69
2022/08/19 07:34:36;;;;;;;8.47;6.97;;;21.30;1.00;;;;;;5115334;28;20464;-69
2022/08/19 07:37:05;;;;;;;9.80;8.63;;;21.30;1.00;;;;;;5113794;28;20459;-68
2022/08/19 07:39:35;;;;;;;7.70;6.00;;;21.10;1.00;;;;;;5115057;28;20471;-69
2022/08/19 07:42:07;;;;;;;7.93;7.10;;;21.20;1.00;;;;;;5111910;28;20445;-70
2022/08/19 07:44:34;;;;;;;8.53;7.47;;;21.30;1.00;;;;;;5114756;28;20468;-69
2022/08/19 07:47:02;;;;;;;11.20;8.40;;;21.40;99.90;;;;;;5111864;28;20445;-69
2022/08/19 07:49:29;;;;;;;10.77;6.70;;;21.40;99.90;;;;;;5114337;28;20468;-69
2022/08/19 07:52:01;;;;;;;8.67;6.80;;;21.50;99.90;;;;;;5098633;28;20963;-69
2022/08/19 07:54:33;;;;;;;7.37;6.63;;;21.60;99.90;;;;;;5111036;28;20444;-69
2022/08/19 07:57:00;;;;;;;8.73;6.07;;;21.50;99.90;;;;;;5099361;28;20476;-69
2022/08/19 07:59:29;;;;;;;8.13;6.93;;;21.60;99.90;;;;;;5104850;28;20450;-69
2022/08/19 08:01:56;;;;;;;6.73;6.00;;;21.70;1.00;;;;;;5109170;28;20480;-69
2022/08/19 08:09:54;;;;;;;7.80;7.10;;;21.50;77.20;;;;;;5100551;28;20887;-71
2022/08/19 08:12:25;;;;;;;7.83;5.50;;;21.60;8.40;;;;;;5103628;28;20516;-70
2022/08/19 08:14:54;;;;;;;6.17;5.07;;;21.70;1.00;;;;;;5095605;28;20461;-71
2022/08/19 08:17:24;;;;;;;7.33;6.07;;;21.80;1.00;;;;;;5089251;28;20465;-71
2022/08/19 08:19:51;;;;;;;7.60;6.57;;;21.80;99.90;;;;;;5095604;28;20939;-71
2022/08/19 08:25:08;;;;;;;10.50;5.83;;;21.60;1.00;;;;;;5093597;28;20881;-70
2022/08/19 08:27:39;;;;;;;8.40;5.87;;;21.60;1.00;;;;;;5093679;28;20567;-72
2022/08/19 08:30:10;;;;;;;8.57;7.10;;;21.70;1.00;;;;;;5092988;28;20442;-74
2022/08/19 08:32:37;;;;;;;6.90;6.10;;;21.70;1.00;;;;;;5092331;28;20497;-75
2022/08/19 08:35:05;;;;;;;8.43;7.40;;;21.70;1.00;;;;;;5097070;28;20488;-78
2022/08/19 08:37:32;;;;;;;7.17;6.20;;;21.70;1.00;;;;;;5114482;28;20497;-78
2022/08/19 08:39:59;;;;;;;9.73;6.50;;;21.70;1.00;;;;;;5115781;28;20748;-78
2022/08/19 08:42:34;;;;;;;5.43;4.77;;;21.70;1.00;;;;;;5096022;28;20480;-77
2022/08/19 08:45:04;;;;;;;6.63;5.93;;;21.80;1.00;;;;;;5093506;28;20457;-77
2022/08/19 08:47:37;;;;;;;7.73;6.23;;;21.80;1.00;;;;;;5091235;28;20469;-78
2022/08/19 08:50:07;;;;;;;7.83;7.03;;;21.90;1.00;;;;;;5093723;28;20493;-78
2022/08/19 08:52:37;;;;;;;7.73;6.93;;;21.80;1.00;;;;;;5090581;28;20493;-78
2022/08/19 08:55:09;;;;;;;8.40;7.60;;;21.80;1.00;;;;;;5093161;28;20456;-78
2022/08/19 08:57:42;;;;;;;5.67;5.17;;;21.90;99.90;;;;;;5091205;28;20507;-77
2022/08/19 09:00:12;;;;;;;9.07;6.17;;;21.80;1.00;;;;;;5085221;28;20466;-77
2022/08/19 09:02:40;;;;;;;7.40;6.30;;;21.90;1.00;;;;;;5072253;28;20446;-78
2022/08/19 09:05:09;;;;;;;6.30;5.63;;;22.00;99.90;;;;;;5074756;28;20512;-78
2022/08/19 09:07:47;;;;;;;12.80;7.70;;;21.90;99.90;;;;;;5070579;28;20451;-78
2022/08/19 09:10:20;;;;;;;6.33;5.60;;;22.00;99.90;;;;;;5075187;28;20492;-78
2022/08/19 09:12:59;;;;;;;6.03;5.43;;;21.90;99.90;;;;;;5077746;28;20518;-77
2022/08/19 09:15:33;;;;;;;8.77;7.10;;;21.90;99.90;;;;;;5073938;28;20454;-78
2022/08/19 09:18:03;;;;;;;7.83;7.03;;;21.90;99.90;;;;;;5077757;28;20435;-77
2022/08/19 09:20:30;;;;;;;6.63;6.10;;;21.90;99.90;;;;;;5075479;28;20450;-78
2022/08/19 09:22:58;;;;;;;6.20;5.27;;;21.90;1.00;;;;;;5078157;28;20468;-76
2022/08/19 09:25:25;;;;;;;6.80;5.23;;;22.00;1.00;;;;;;5074931;28;20446;-76
2022/08/19 09:27:56;;;;;;;7.13;6.30;;;22.10;99.90;;;;;;5078203;28;20457;-77
2022/08/19 09:30:25;;;;;;;5.77;5.27;;;22.10;99.90;;;;;;5074118;28;20438;-76
2022/08/19 09:32:56;;;;;;;7.97;5.20;;;22.10;99.90;;;;;;5077553;28;20945;-77
2022/08/19 09:35:26;;;;;;;6.93;6.23;;;22.10;99.90;;;;;;5057530;28;20453;-77
2022/08/19 09:37:54;;;;;;;5.10;4.00;;;22.10;99.90;;;;;;5076575;28;20474;-77
2022/08/19 09:40:21;;;;;;;6.57;6.00;;;22.10;99.90;;;;;;5076946;28;20537;-72
2022/08/19 09:42:48;;;;;;;7.50;5.53;;;22.30;1.00;;;;;;5073568;28;20459;-72
2022/08/19 09:45:21;;;;;;;5.50;4.87;;;22.30;1.00;;;;;;5077496;28;20642;-72
2022/08/19 09:47:48;;;;;;;6.37;5.53;;;22.30;1.00;;;;;;5077704;28;20485;-73
2022/08/19 09:50:16;;;;;;;11.40;6.30;;;22.20;1.00;;;;;;5098128;28;20904;-72
2022/08/19 09:52:43;;;;;;;7.77;5.60;;;22.20;1.00;;;;;;5094723;28;20798;-70
2022/08/19 09:55:12;;;;;;;5.80;5.30;;;22.30;1.00;;;;;;5096953;28;20459;-70
2022/08/19 09:57:39;;;;;;;4.77;4.37;;;22.40;1.00;;;;;;5093792;28;20450;-70
2022/08/19 10:00:08;;;;;;;5.50;4.87;;;22.40;1.00;;;;;;5097341;28;20974;-70
2022/08/19 10:02:37;;;;;;;5.97;4.30;;;22.50;99.90;;;;;;5093490;28;20465;-70
2022/08/19 10:07:50;;;;;;;5.00;2.80;;;22.50;66.60;;;;;;5094688;28;21103;-69
2022/08/19 10:10:17;;;;;;;5.43;3.83;;;22.60;1.00;;;;;;5096168;28;20479;-69
2022/08/19 10:12:47;;;;;;;6.43;4.10;;;22.60;1.00;;;;;;5089274;28;20482;-69
2022/08/19 10:15:14;;;;;;;6.60;4.80;;;22.50;1.00;;;;;;5076533;28;20765;-69
2022/08/19 10:17:42;;;;;;;3.77;3.47;;;22.50;7.40;;;;;;5097587;28;20899;-69
2022/08/19 10:20:10;;;;;;;7.20;4.67;;;22.50;1.00;;;;;;5096261;28;20511;-69
2022/08/19 10:22:37;;;;;;;4.77;4.27;;;22.50;1.00;;;;;;5092192;28;20540;-69
2022/08/19 10:25:09;;;;;;;3.37;3.07;;;22.50;1.00;;;;;;5092759;28;20973;-69
2022/08/19 10:27:36;;;;;;;5.00;3.63;;;22.60;99.90;;;;;;5087791;28;20958;-69
2022/08/19 10:30:04;;;;;;;4.07;3.40;;;22.70;1.00;;;;;;5095241;28;20902;-70
2022/08/19 10:32:31;;;;;;;3.53;3.13;;;22.80;1.00;;;;;;5091422;28;20478;-70
2022/08/19 10:35:00;;;;;;;5.40;3.60;;;22.70;1.00;;;;;;5076610;28;20806;-70
2022/08/19 10:37:27;;;;;;;7.50;6.00;;;22.70;1.00;;;;;;5075505;28;21100;-70
2022/08/19 10:39:54;;;;;;;4.50;3.53;;;22.80;99.90;;;;;;5076700;28;20909;-70
2022/08/19 10:42:21;;;;;;;3.27;2.70;;;22.90;99.90;;;;;;5090225;28;20990;-72
2022/08/19 10:44:48;;;;;;;3.60;3.30;;;23.00;53.90;;;;;;5092507;28;20526;-71
2022/08/19 10:47:15;;;;;;;4.73;4.33;;;23.00;1.00;;;;;;5096459;28;20441;-70
2022/08/19 10:52:34;;;;;;;4.93;4.00;;;23.30;99.90;;;;;;5074878;28;20640;-70
2022/08/19 10:57:46;;;;;;;3.20;2.20;;;23.50;1.00;;;;;;5075282;28;20442;-69
2022/08/19 11:00:14;;;;;;;3.53;3.27;;;23.50;99.90;;;;;;5089492;28;20483;-69
2022/08/19 11:02:42;;;;;;;3.50;3.20;;;23.40;99.90;;;;;;5095015;28;20491;-70
2022/08/19 11:05:10;;;;;;;3.60;2.27;;;23.50;99.90;;;;;;5094693;28;20856;-71
2022/08/19 11:07:39;;;;;;;4.03;2.60;;;23.50;99.90;;;;;;5096637;28;20450;-71
2022/08/19 11:10:09;;;;;;;5.87;2.50;;;23.30;99.90;;;;;;5093832;28;20477;-70
2022/08/19 11:12:38;;;;;;;3.50;2.63;;;23.40;99.90;;;;;;5095142;28;20571;-71
2022/08/19 11:15:07;;;;;;;3.17;2.87;;;23.40;99.90;;;;;;5090617;28;20544;-71
2022/08/19 11:17:40;;;;;;;2.83;1.80;;;23.60;48.00;;;;;;5094155;28;20454;-71
2022/08/19 11:20:08;;;;;;;3.37;3.07;;;23.70;58.90;;;;;;5092762;28;20468;-72
2022/08/19 11:22:36;;;;;;;3.03;2.60;;;23.70;1.00;;;;;;5093665;28;20448;-71
2022/08/19 11:25:05;;;;;;;3.30;2.70;;;23.80;1.00;;;;;;5091568;28;20449;-71
2022/08/19 11:27:32;;;;;;;4.23;2.20;;;23.70;1.00;;;;;;5094638;28;20452;-71
2022/08/19 11:29:59;;;;;;;3.30;3.10;;;23.80;1.00;;;;;;5091833;28;20454;-71
2022/08/19 11:32:26;;;;;;;2.63;2.40;;;23.90;1.00;;;;;;5091860;28;20556;-71
2022/08/19 11:34:54;;;;;;;1.97;1.77;;;23.90;1.00;;;;;;5091572;28;20449;-72
2022/08/19 11:37:21;;;;;;;3.20;3.00;;;24.00;1.00;;;;;;5095101;28;20449;-72
2022/08/19 11:39:48;;;;;;;2.43;2.23;;;24.00;1.00;;;;;;5096318;28;20457;-71
2022/08/19 11:45:03;;;;;;;3.33;2.10;;;24.10;1.00;;;;;;5092963;28;20433;-72
2022/08/19 11:47:30;;;;;;;2.33;2.13;;;24.20;1.00;;;;;;5094885;28;20940;-71
2022/08/19 11:49:57;;;;;;;2.60;1.77;;;24.30;99.90;;;;;;5093014;28;20993;-73
2022/08/19 11:52:25;;;;;;;2.00;1.80;;;24.30;99.90;;;;;;5094970;28;21126;-72
2022/08/19 11:54:52;;;;;;;2.47;2.27;;;24.30;99.90;;;;;;5092463;28;20453;-70
2022/08/19 11:57:20;;;;;;;3.90;2.10;;;24.30;99.90;;;;;;5094316;28;20548;-71
2022/08/19 11:59:51;;;;;;;1.93;1.73;;;24.40;99.90;;;;;;5091746;28;20534;-71
2022/08/19 12:02:18;;;;;;;3.07;1.83;;;24.30;99.90;;;;;;5093290;28;20442;-71
2022/08/19 12:04:45;;;;;;;2.83;2.10;;;24.30;99.90;;;;;;5089274;28;20484;-71
2022/08/19 12:07:13;;;;;;;2.47;2.27;;;24.30;99.90;;;;;;5092649;28;20450;-71
2022/08/19 12:09:42;;;;;;;3.87;1.87;;;24.40;99.90;;;;;;5090278;28;20449;-71
2022/08/19 12:12:12;;;;;;;2.80;2.60;;;24.40;99.90;;;;;;5114194;28;20476;-72
2022/08/19 12:14:40;;;;;;;3.87;3.57;;;24.40;99.90;;;;;;5112870;28;20487;-72
2022/08/19 12:17:08;;;;;;;4.90;2.50;;;24.50;99.90;;;;;;5109513;27;20469;-72
2022/08/19 12:19:37;;;;;;;2.23;1.80;;;24.40;99.90;;;;;;5110078;28;20457;-72
2022/08/19 12:22:05;;;;;;;2.00;1.77;;;24.40;99.90;;;;;;5115328;28;20441;-72
2022/08/19 12:24:33;;;;;;;3.13;1.93;;;24.40;99.90;;;;;;5113008;28;20800;-70
2022/08/19 12:27:01;;;;;;;2.30;2.10;;;24.40;99.90;;;;;;5115362;28;20519;-72
2022/08/19 12:29:29;;;;;;;2.47;2.27;;;24.50;99.90;;;;;;5112331;28;20480;-72
2022/08/19 12:32:01;;;;;;;1.93;1.60;;;24.50;99.90;;;;;;5115927;28;20449;-72
2022/08/19 12:34:30;;;;;;;2.87;2.50;;;24.50;99.90;;;;;;5115371;28;20452;-71
2022/08/19 12:36:57;;;;;;;3.63;2.43;;;24.50;99.90;;;;;;5112004;28;20449;-72
2022/08/19 12:39:24;;;;;;;2.53;2.33;;;24.40;99.90;;;;;;5114188;28;20445;-72
2022/08/19 12:41:52;;;;;;;2.57;2.10;;;24.40;99.90;;;;;;5111672;28;20448;-73
2022/08/19 12:44:20;;;;;;;2.90;2.60;;;24.40;99.90;;;;;;5116671;28;20895;-74
2022/08/19 12:46:48;;;;;;;2.40;2.20;;;24.20;99.90;;;;;;5117523;28;20460;-73
2022/08/19 12:49:17;;;;;;;3.00;2.67;;;24.10;1.00;;;;;;5119864;28;20445;-74
2022/08/19 12:51:44;;;;;;;5.30;2.73;;;24.10;1.00;;;;;;5115414;28;20452;-74
2022/08/19 12:54:11;;;;;;;3.80;3.50;;;24.00;1.00;;;;;;5117741;28;20571;-73
2022/08/19 12:56:38;;;;;;;3.80;3.30;;;24.10;1.00;;;;;;5112507;28;20498;-73
2022/08/19 12:59:07;;;;;;;3.63;3.23;;;24.00;99.90;;;;;;5118752;28;20527;-73
2022/08/19 13:01:34;;;;;;;3.10;2.80;;;24.00;99.90;;;;;;5115626;28;20440;-73
2022/08/19 13:04:01;;;;;;;3.47;3.17;;;24.00;99.90;;;;;;5119925;28;20509;-73
2022/08/19 13:06:30;;;;;;;3.33;3.10;;;24.00;53.10;;;;;;5097985;28;20444;-73
2022/08/19 13:08:57;;;;;;;3.33;3.03;;;24.00;13.70;;;;;;5118567;28;20448;-73
2022/08/19 13:11:25;;;;;;;4.10;3.70;;;24.00;15.70;;;;;;5114532;28;20545;-73
2022/08/19 13:13:54;;;;;;;3.73;2.73;;;24.00;28.10;;;;;;5117725;28;20571;-73
2022/08/19 13:16:23;;;;;;;3.13;2.33;;;23.90;99.90;;;;;;5116270;28;20454;-73
2022/08/19 13:18:51;;;;;;;5.20;2.67;;;23.80;1.00;;;;;;5118449;28;20452;-74
2022/08/19 13:21:19;;;;;;;3.50;3.10;;;23.70;1.00;;;;;;5118151;28;20464;-73
2022/08/19 13:23:48;;;;;;;2.63;2.40;;;23.70;1.00;;;;;;5117557;28;20455;-73